Airport View

Enter AWOS ICAO identifier for current METAR.

ex. KFNL

KLUX 040555Z AUTO 00000KT 10SM CLR 20/20 A2992 RMK AO2

4 Aug 2020 05:58

Frequency: 123.975

Phone: 864-682-3639

Other Area AWOS: KGRD - KEOE - KSPA - KGYH

TAF KGSP 032339Z 0400/0424 01006KT P6SM -SHRA FEW070 BKN110 TEMPO 0400/0402 5SM TSRA BKN025CB FM040400 36004KT P6SM SCT060 SCT100 FM040900 VRB03KT 5SM BR FEW008 SCT050 FM041300 23007KT P6SM SCT050